createdAt,value
2023-04-13T00:02:24.798Z,16.38
2023-04-13T00:04:54.857Z,15.45
2023-04-13T00:07:23.096Z,15.50
2023-04-13T00:09:50.788Z,15.75
2023-04-13T00:12:21.391Z,16.38
2023-04-13T00:14:50.894Z,17.75
2023-04-13T00:17:18.231Z,18.52
2023-04-13T00:19:48.119Z,18.70
2023-04-13T00:22:15.720Z,18.05
2023-04-13T00:24:44.157Z,19.13
2023-04-13T00:27:12.330Z,19.38
2023-04-13T00:29:39.259Z,19.92
2023-04-13T00:32:06.634Z,20.20
2023-04-13T00:34:33.984Z,20.20
2023-04-13T00:37:02.235Z,20.20
2023-04-13T00:39:31.193Z,21.67
2023-04-13T00:41:59.978Z,21.00
2023-04-13T00:44:28.515Z,20.75
2023-04-13T00:46:56.527Z,22.83
2023-04-13T00:49:23.779Z,21.33
2023-04-13T00:51:51.398Z,21.17
2023-04-13T00:54:18.726Z,20.58
2023-04-13T00:56:46.807Z,20.67
2023-04-13T00:59:14.312Z,21.08
2023-04-13T01:01:51.053Z,20.20
2023-04-13T01:04:19.999Z,21.60
2023-04-13T01:07:08.945Z,21.20
2023-04-13T01:10:13.329Z,22.33
2023-04-13T01:13:17.857Z,20.17
2023-04-13T01:16:01.543Z,21.02
2023-04-13T01:18:33.357Z,22.02
2023-04-13T01:21:02.445Z,21.75
2023-04-13T01:24:07.014Z,21.80
2023-04-13T01:26:58.525Z,22.85
2023-04-13T01:31:55.870Z,21.95
2023-04-13T01:34:24.683Z,21.40
2023-04-13T01:36:51.647Z,23.48
2023-04-13T01:39:22.290Z,22.15
2023-04-13T01:41:59.264Z,22.20
2023-04-13T01:44:33.237Z,22.67
2023-04-13T01:47:16.494Z,21.98
2023-04-13T01:50:25.882Z,20.48
2023-04-13T01:53:08.281Z,22.05
2023-04-13T01:55:42.116Z,22.52
2023-04-13T01:58:13.708Z,22.67
2023-04-13T02:00:43.198Z,22.08
2023-04-13T02:03:15.614Z,23.08
2023-04-13T02:05:43.436Z,23.23
2023-04-13T02:08:10.738Z,20.77
2023-04-13T02:10:45.309Z,24.10
2023-04-13T02:13:13.567Z,21.60
2023-04-13T02:15:42.806Z,22.13
2023-04-13T02:18:11.621Z,22.25
2023-04-13T02:20:44.024Z,22.55
2023-04-13T02:23:18.063Z,21.63
2023-04-13T02:25:47.862Z,22.17
2023-04-13T02:28:18.146Z,22.80
2023-04-13T02:30:47.177Z,22.77
2023-04-13T02:33:14.566Z,22.45
2023-04-13T02:35:42.411Z,22.10
2023-04-13T02:38:11.648Z,21.95
2023-04-13T02:40:41.308Z,22.50
2023-04-13T02:43:08.890Z,21.48
2023-04-13T02:45:40.167Z,22.67
2023-04-13T02:48:10.779Z,22.85
2023-04-13T02:50:38.951Z,23.00
2023-04-13T02:53:09.291Z,22.73
2023-04-13T02:55:39.121Z,21.83
2023-04-13T02:58:11.000Z,22.17
2023-04-13T03:00:38.850Z,22.27
2023-04-13T03:03:11.099Z,24.02
2023-04-13T03:05:43.933Z,23.08
2023-04-13T03:08:15.864Z,22.13
2023-04-13T03:10:56.501Z,22.67
2023-04-13T03:13:24.546Z,22.60
2023-04-13T03:15:57.931Z,22.25
2023-04-13T03:18:27.314Z,22.13
2023-04-13T03:20:55.802Z,23.67
2023-04-13T03:25:54.677Z,21.73
2023-04-13T03:28:23.873Z,21.33
2023-04-13T03:30:52.496Z,23.80
2023-04-13T03:33:19.521Z,24.02
2023-04-13T03:35:47.477Z,23.73
2023-04-13T03:38:23.134Z,25.48
2023-04-13T03:40:52.667Z,24.58
2023-04-13T03:43:19.527Z,23.83
2023-04-13T03:45:55.716Z,26.02
2023-04-13T03:48:23.505Z,24.83
2023-04-13T03:50:56.318Z,25.13
2023-04-13T03:53:28.566Z,23.92
2023-04-13T03:55:57.038Z,25.63
2023-04-13T03:58:23.980Z,25.73
2023-04-13T04:00:52.256Z,24.95
2023-04-13T04:03:32.214Z,25.42
2023-04-13T04:06:05.594Z,24.75
2023-04-13T04:08:32.729Z,25.83
2023-04-13T04:11:04.706Z,24.63
2023-04-13T04:13:33.197Z,24.70
2023-04-13T04:16:07.247Z,24.50
2023-04-13T04:18:36.474Z,23.33
2023-04-13T04:21:06.863Z,23.60
2023-04-13T04:23:37.947Z,25.08
2023-04-13T04:26:07.175Z,23.67
2023-04-13T04:28:42.442Z,23.73
2023-04-13T04:31:15.082Z,24.10
2023-04-13T04:33:47.054Z,24.30
2023-04-13T04:36:16.705Z,23.00
2023-04-13T04:38:58.339Z,21.75
2023-04-13T04:41:27.100Z,21.63
2023-04-13T04:43:57.726Z,22.88
2023-04-13T04:46:29.959Z,22.30
2023-04-13T04:49:03.078Z,21.45
2023-04-13T04:51:31.523Z,21.10
2023-04-13T04:54:01.518Z,20.20
2023-04-13T04:56:29.389Z,19.10
2023-04-13T04:58:57.101Z,18.35
2023-04-13T05:01:34.994Z,19.05
2023-04-13T05:04:08.738Z,18.17
2023-04-13T05:06:41.547Z,19.27
2023-04-13T05:09:12.034Z,20.88
2023-04-13T05:11:44.585Z,18.80
2023-04-13T05:14:13.482Z,19.23
2023-04-13T05:16:41.080Z,19.17
2023-04-13T05:19:18.230Z,19.63
2023-04-13T05:21:51.988Z,18.33
2023-04-13T05:24:19.712Z,17.08
2023-04-13T05:26:48.473Z,19.17
2023-04-13T05:29:21.276Z,18.50
2023-04-13T05:31:49.781Z,18.05
2023-04-13T05:34:18.417Z,19.42
2023-04-13T05:37:11.456Z,17.55
2023-04-13T05:39:40.134Z,17.52
2023-04-13T05:42:08.653Z,17.65
2023-04-13T05:44:41.242Z,18.83
2023-04-13T05:47:09.557Z,16.90
2023-04-13T05:49:36.612Z,18.05
2023-04-13T05:52:06.956Z,18.63
2023-04-13T05:54:42.845Z,17.90
2023-04-13T05:57:10.388Z,17.33
2023-04-13T05:59:41.244Z,18.45
2023-04-13T06:02:09.603Z,15.43
2023-04-13T06:04:36.882Z,16.73
2023-04-13T06:07:04.483Z,17.20
2023-04-13T06:09:32.175Z,16.02
2023-04-13T06:12:00.754Z,17.48
2023-04-13T06:14:29.115Z,18.98
2023-04-13T06:16:57.363Z,18.27
2023-04-13T06:19:26.849Z,18.83
2023-04-13T06:21:56.311Z,18.83
2023-04-13T06:24:24.132Z,19.13
2023-04-13T06:26:55.395Z,19.33
2023-04-13T06:29:24.413Z,19.63
2023-04-13T06:32:01.321Z,17.20
2023-04-13T06:34:31.788Z,17.27
2023-04-13T06:37:02.215Z,19.15
2023-04-13T06:39:37.908Z,16.08
2023-04-13T06:42:09.760Z,15.45
2023-04-13T06:44:57.056Z,15.10
2023-04-13T06:47:28.704Z,15.00
2023-04-13T06:49:56.446Z,14.50
2023-04-13T06:52:24.322Z,13.07
2023-04-13T06:54:51.615Z,15.27
2023-04-13T06:57:35.024Z,13.32
2023-04-13T07:00:02.334Z,14.40
2023-04-13T07:02:30.759Z,14.55
2023-04-13T07:05:00.126Z,14.32
2023-04-13T07:07:31.236Z,14.93
2023-04-13T07:10:00.450Z,14.57
2023-04-13T07:12:29.043Z,14.65
2023-04-13T07:14:56.743Z,14.82
2023-04-13T07:17:25.066Z,16.00
2023-04-13T07:19:53.183Z,15.55
2023-04-13T07:22:20.896Z,14.18
2023-04-13T07:24:50.242Z,14.98
2023-04-13T07:27:20.539Z,12.43
2023-04-13T07:29:51.870Z,13.13
2023-04-13T07:32:28.068Z,12.55
2023-04-13T07:35:02.680Z,12.75
2023-04-13T07:37:34.995Z,12.40
2023-04-13T07:40:03.137Z,11.88
2023-04-13T07:42:33.251Z,12.45
2023-04-13T07:45:00.553Z,11.73
2023-04-13T07:47:30.050Z,12.45
2023-04-13T07:50:06.355Z,12.35
2023-04-13T07:52:35.041Z,12.85
2023-04-13T07:55:03.885Z,12.27
2023-04-13T07:57:36.868Z,12.13
2023-04-13T08:00:08.452Z,12.95
2023-04-13T08:02:46.506Z,12.80
2023-04-13T08:05:19.093Z,12.38
2023-04-13T08:07:49.324Z,11.68
2023-04-13T08:10:16.496Z,12.23
2023-04-13T08:12:44.874Z,12.00
2023-04-13T08:15:16.857Z,12.05
2023-04-13T08:17:45.553Z,12.95
2023-04-13T08:20:13.602Z,12.23
2023-04-13T08:22:41.647Z,13.13
2023-04-13T08:25:09.068Z,12.45
2023-04-13T08:27:37.066Z,12.55
2023-04-13T08:30:05.675Z,12.80
2023-04-13T08:32:43.380Z,11.85
2023-04-13T08:35:12.187Z,10.27
2023-04-13T08:37:40.312Z,10.60
2023-04-13T08:40:12.953Z,9.93
2023-04-13T08:42:43.053Z,10.90
2023-04-13T08:45:12.105Z,11.63
2023-04-13T08:47:45.892Z,10.45
2023-04-13T08:52:50.112Z,10.77
2023-04-13T08:55:18.176Z,9.32
2023-04-13T08:57:54.211Z,10.27
2023-04-13T09:00:24.683Z,10.00
2023-04-13T09:03:05.645Z,10.23
2023-04-13T09:05:44.186Z,10.05
2023-04-13T09:08:14.640Z,10.48
2023-04-13T09:10:45.418Z,9.98
2023-04-13T09:13:12.983Z,10.10
2023-04-13T09:15:41.817Z,9.63
2023-04-13T09:18:24.108Z,9.82
2023-04-13T09:20:59.848Z,9.32
2023-04-13T09:23:28.020Z,8.02
2023-04-13T09:26:10.809Z,9.38
2023-04-13T09:28:50.629Z,9.48
2023-04-13T09:31:18.133Z,10.60
2023-04-13T09:33:48.887Z,9.85
2023-04-13T09:36:18.313Z,11.18
2023-04-13T09:38:52.366Z,10.70
2023-04-13T09:41:40.748Z,9.27
2023-04-13T09:44:20.630Z,9.32
2023-04-13T09:47:02.071Z,9.27
2023-04-13T09:49:42.327Z,9.25
2023-04-13T09:52:23.681Z,8.95
2023-04-13T09:57:33.348Z,9.68
2023-04-13T10:00:01.776Z,8.57
2023-04-13T10:02:39.736Z,10.00
2023-04-13T10:05:11.638Z,9.25
2023-04-13T10:07:40.097Z,9.30
2023-04-13T10:10:08.364Z,8.48
2023-04-13T10:12:39.695Z,8.18
2023-04-13T10:18:31.057Z,8.60
2023-04-13T10:21:00.164Z,8.25
2023-04-13T10:23:29.576Z,8.25
2023-04-13T10:26:00.315Z,8.85
2023-04-13T10:28:28.090Z,8.43
2023-04-13T10:30:55.428Z,9.38
2023-04-13T10:33:23.061Z,9.25
2023-04-13T10:35:58.956Z,8.80
2023-04-13T10:38:28.090Z,9.30
2023-04-13T10:40:55.904Z,8.63
2023-04-13T10:43:27.624Z,7.70
2023-04-13T10:46:11.762Z,8.00
2023-04-13T10:48:41.851Z,8.07
2023-04-13T10:51:09.722Z,8.20
2023-04-13T10:53:37.167Z,7.68
2023-04-13T10:56:25.676Z,6.93
2023-04-13T10:58:54.221Z,8.00
2023-04-13T11:01:23.037Z,7.93
2023-04-13T11:04:04.100Z,7.93
2023-04-13T11:06:40.501Z,7.57
2023-04-13T11:09:09.856Z,8.18
2023-04-13T11:11:40.825Z,7.53
2023-04-13T11:14:09.948Z,7.70
2023-04-13T11:16:46.331Z,7.85
2023-04-13T11:19:14.089Z,7.57
2023-04-13T11:21:44.788Z,7.43
2023-04-13T11:24:12.139Z,7.47
2023-04-13T11:26:41.665Z,8.00
2023-04-13T11:29:18.314Z,7.38
2023-04-13T11:31:46.116Z,8.05
2023-04-13T11:34:13.982Z,8.18
2023-04-13T11:36:43.246Z,7.40
2023-04-13T11:39:10.984Z,6.90
2023-04-13T11:41:43.110Z,7.13
2023-04-13T11:44:13.445Z,7.15
2023-04-13T11:46:41.535Z,8.65
2023-04-13T11:49:08.895Z,7.65
2023-04-13T11:51:37.725Z,7.40
2023-04-13T11:54:07.008Z,6.88
2023-04-13T11:56:34.544Z,6.68
2023-04-13T11:59:02.372Z,6.75
2023-04-13T12:01:34.131Z,7.03
2023-04-13T12:04:15.536Z,6.70
2023-04-13T12:06:47.405Z,5.95
2023-04-13T12:09:18.021Z,6.50
2023-04-13T12:12:15.902Z,6.45
2023-04-13T12:14:54.574Z,7.63
2023-04-13T12:17:41.390Z,6.55
2023-04-13T12:20:16.789Z,6.55
2023-04-13T12:22:54.834Z,6.38
2023-04-13T12:25:35.575Z,7.20
2023-04-13T12:28:04.390Z,6.25
2023-04-13T12:30:33.067Z,6.22
2023-04-13T12:33:00.906Z,5.15
2023-04-13T12:35:27.895Z,4.78
2023-04-13T12:37:55.562Z,5.53
2023-04-13T12:40:23.443Z,5.13
2023-04-13T12:42:50.824Z,5.20
2023-04-13T12:45:18.364Z,4.95
2023-04-13T12:47:45.908Z,5.47
2023-04-13T12:50:13.316Z,5.20
2023-04-13T12:52:43.196Z,5.55
2023-04-13T12:55:11.414Z,4.70
2023-04-13T12:57:39.859Z,5.85
2023-04-13T13:00:11.272Z,4.65
2023-04-13T13:05:07.096Z,5.05
2023-04-13T13:07:35.452Z,4.80
2023-04-13T13:10:06.150Z,4.10
2023-04-13T13:12:37.853Z,4.00
2023-04-13T13:15:10.527Z,3.65
2023-04-13T13:17:41.686Z,3.10
2023-04-13T13:20:10.856Z,3.58
2023-04-13T13:22:38.315Z,4.30
2023-04-13T13:25:07.139Z,4.28
2023-04-13T13:28:05.612Z,4.13
2023-04-13T13:30:26.448Z,4.40
2023-04-13T13:32:53.722Z,3.85
2023-04-13T13:35:20.977Z,3.38
2023-04-13T13:37:48.316Z,3.33
2023-04-13T13:40:15.781Z,3.53
2023-04-13T13:42:51.833Z,3.53
2023-04-13T13:45:23.548Z,4.63
2023-04-13T13:47:55.901Z,2.88
2023-04-13T13:50:32.688Z,2.75
2023-04-13T13:53:04.406Z,5.18
2023-04-13T13:55:38.423Z,3.53
2023-04-13T13:58:05.950Z,3.33
2023-04-13T14:00:33.430Z,4.50
2023-04-13T14:03:01.133Z,2.72
2023-04-13T14:05:28.642Z,3.42
2023-04-13T14:07:55.860Z,3.20
2023-04-13T14:10:23.025Z,2.72
2023-04-13T14:12:50.992Z,2.80
2023-04-13T14:15:19.072Z,2.65
2023-04-13T14:17:52.854Z,2.80
2023-04-13T14:20:23.081Z,2.97
2023-04-13T14:22:51.207Z,2.85
2023-04-13T14:25:18.693Z,3.03
2023-04-13T14:27:47.264Z,3.30
2023-04-13T14:30:17.584Z,3.17
2023-04-13T14:32:47.068Z,2.95
2023-04-13T14:35:14.149Z,2.10
2023-04-13T14:37:41.788Z,3.47
2023-04-13T14:40:13.921Z,2.70
2023-04-13T14:42:41.401Z,2.63
2023-04-13T14:45:11.435Z,2.58
2023-04-13T14:47:40.325Z,2.97
2023-04-13T14:50:08.411Z,3.05
2023-04-13T14:52:36.005Z,2.67
2023-04-13T14:55:03.275Z,2.92
2023-04-13T14:57:31.658Z,3.17
2023-04-13T14:59:58.996Z,2.88
2023-04-13T15:02:28.527Z,3.17
2023-04-13T15:04:56.216Z,3.40
2023-04-13T15:07:29.431Z,2.97
2023-04-13T15:09:58.113Z,2.85
2023-04-13T15:12:25.725Z,3.40
2023-04-13T15:14:52.955Z,3.15
2023-04-13T15:17:21.266Z,4.03
2023-04-13T15:19:48.348Z,3.30
2023-04-13T15:22:16.184Z,4.22
2023-04-13T15:24:43.114Z,3.50
2023-04-13T15:27:11.243Z,3.90
2023-04-13T15:29:38.360Z,2.97
2023-04-13T15:32:05.963Z,4.28
2023-04-13T15:34:32.860Z,3.08
2023-04-13T15:37:00.437Z,2.95
2023-04-13T15:39:28.498Z,3.63
2023-04-13T15:41:57.899Z,2.88
2023-04-13T15:44:25.133Z,3.25
2023-04-13T15:46:52.997Z,3.25
2023-04-13T15:49:19.902Z,2.80
2023-04-13T15:51:47.189Z,3.50
2023-04-13T15:54:14.194Z,3.30
2023-04-13T15:56:43.901Z,3.33
2023-04-13T15:59:10.871Z,3.17
2023-04-13T16:01:46.901Z,3.00
2023-04-13T16:04:15.024Z,3.17
2023-04-13T16:06:42.708Z,4.10
2023-04-13T16:09:10.824Z,3.33
2023-04-13T16:11:42.285Z,3.22
2023-04-13T16:14:09.600Z,3.40
2023-04-13T16:16:47.003Z,3.28
2023-04-13T16:19:18.763Z,3.10
2023-04-13T16:21:47.034Z,3.80
2023-04-13T16:24:14.191Z,4.40
2023-04-13T16:26:42.065Z,4.90
2023-04-13T16:29:09.301Z,4.60
2023-04-13T16:31:37.242Z,4.43
2023-04-13T16:34:22.111Z,4.68
2023-04-13T16:36:52.764Z,3.78
2023-04-13T16:39:21.935Z,3.42
2023-04-13T16:41:49.325Z,4.20
2023-04-13T16:44:16.931Z,3.90
2023-04-13T16:46:44.624Z,3.92
2023-04-13T16:49:11.795Z,3.83
2023-04-13T16:51:39.304Z,4.75
2023-04-13T16:54:06.775Z,4.35
2023-04-13T16:56:34.052Z,4.47
2023-04-13T16:59:01.627Z,4.35
2023-04-13T17:01:30.797Z,4.43
2023-04-13T17:03:58.149Z,4.50
2023-04-13T17:06:27.240Z,5.18
2023-04-13T17:08:54.587Z,4.03
2023-04-13T17:11:23.080Z,4.63
2023-04-13T17:13:51.465Z,4.32
2023-04-13T17:16:18.765Z,4.88
2023-04-13T17:18:46.195Z,3.95
2023-04-13T17:21:13.915Z,4.03
2023-04-13T17:23:41.214Z,4.78
2023-04-13T17:26:08.493Z,5.38
2023-04-13T17:28:36.206Z,5.88
2023-04-13T17:31:03.938Z,5.00
2023-04-13T17:33:31.735Z,6.10
2023-04-13T17:35:59.351Z,6.30
2023-04-13T17:38:26.318Z,6.93
2023-04-13T17:40:54.485Z,7.95
2023-04-13T17:43:22.017Z,7.00
2023-04-13T17:45:49.894Z,7.72
2023-04-13T17:48:17.461Z,8.10
2023-04-13T17:50:46.511Z,7.00
2023-04-13T17:53:13.739Z,8.00
2023-04-13T17:55:41.248Z,7.85
2023-04-13T17:58:11.398Z,8.13
2023-04-13T18:00:38.995Z,7.60
2023-04-13T18:03:06.895Z,8.65
2023-04-13T18:05:35.388Z,8.85
2023-04-13T18:08:02.433Z,9.45
2023-04-13T18:10:31.032Z,9.98
2023-04-13T18:13:01.440Z,10.10
2023-04-13T18:15:28.928Z,9.70
2023-04-13T18:17:56.065Z,10.20
2023-04-13T18:20:23.526Z,10.13
2023-04-13T18:22:51.087Z,11.52
2023-04-13T18:25:19.011Z,11.10
2023-04-13T18:27:47.155Z,10.95
2023-04-13T18:30:16.753Z,10.70
2023-04-13T18:32:44.038Z,11.15
2023-04-13T18:35:13.159Z,11.27
2023-04-13T18:37:40.994Z,11.10
2023-04-13T18:40:09.406Z,11.68
2023-04-13T18:42:40.020Z,10.82
2023-04-13T18:45:08.170Z,11.20
2023-04-13T18:47:35.365Z,12.85
2023-04-13T18:50:02.941Z,13.10
2023-04-13T18:52:29.971Z,13.13
2023-04-13T18:54:57.197Z,12.98
2023-04-13T18:57:24.502Z,13.52
2023-04-13T18:59:51.913Z,13.30
2023-04-13T19:02:19.134Z,13.45
2023-04-13T19:04:47.093Z,13.43
2023-04-13T19:07:14.478Z,13.88
2023-04-13T19:09:42.055Z,13.50
2023-04-13T19:12:09.366Z,14.15
2023-04-13T19:14:36.613Z,13.15
2023-04-13T19:17:03.987Z,14.23
2023-04-13T19:19:31.221Z,15.48
2023-04-13T19:21:58.171Z,14.80
2023-04-13T19:24:26.672Z,14.70
2023-04-13T19:26:55.807Z,14.38
2023-04-13T19:29:25.575Z,15.15
2023-04-13T19:31:52.740Z,14.88
2023-04-13T19:34:19.886Z,14.75
2023-04-13T19:36:47.234Z,15.63
2023-04-13T19:39:14.556Z,15.13
2023-04-13T19:41:41.642Z,15.20
2023-04-13T19:44:09.150Z,17.05
2023-04-13T19:46:36.674Z,16.13
2023-04-13T19:49:03.821Z,17.30
2023-04-13T19:51:34.650Z,16.58
2023-04-13T19:54:04.980Z,15.68
2023-04-13T19:56:36.729Z,15.55
2023-04-13T19:59:05.265Z,16.42
2023-04-13T20:01:33.696Z,16.23
2023-04-13T20:04:04.457Z,16.17
2023-04-13T20:06:35.054Z,16.42
2023-04-13T20:09:11.000Z,15.93
2023-04-13T20:11:39.318Z,15.55
2023-04-13T20:14:06.692Z,15.13
2023-04-13T20:16:35.549Z,14.70
2023-04-13T20:19:03.370Z,14.93
2023-04-13T20:21:31.123Z,15.05
2023-04-13T20:23:59.646Z,13.75
2023-04-13T20:26:29.740Z,14.30
2023-04-13T20:29:05.955Z,13.50
2023-04-13T20:31:33.664Z,13.55
2023-04-13T20:34:03.174Z,12.98
2023-04-13T20:36:31.443Z,11.80
2023-04-13T20:39:01.676Z,12.52
2023-04-13T20:41:33.766Z,12.35
2023-04-13T20:44:01.487Z,12.55
2023-04-13T20:46:35.167Z,12.38
2023-04-13T20:49:05.508Z,11.32
2023-04-13T20:51:33.678Z,10.73
2023-04-13T20:54:02.960Z,11.00
2023-04-13T20:56:30.236Z,10.63
2023-04-13T20:58:58.364Z,11.48
2023-04-13T21:01:25.586Z,11.40
2023-04-13T21:03:53.252Z,11.32
2023-04-13T21:06:22.849Z,10.40
2023-04-13T21:08:52.767Z,10.70
2023-04-13T21:11:19.759Z,11.25
2023-04-13T21:13:47.324Z,11.82
2023-04-13T21:16:14.427Z,11.02
2023-04-13T21:18:42.624Z,11.02
2023-04-13T21:21:09.556Z,9.65
2023-04-13T21:23:37.525Z,10.15
2023-04-13T21:26:05.367Z,10.60
2023-04-13T21:28:32.730Z,10.27
2023-04-13T21:30:59.596Z,10.85
2023-04-13T21:33:27.343Z,10.73
2023-04-13T21:35:54.378Z,10.52
2023-04-13T21:38:22.046Z,9.52
2023-04-13T21:40:49.102Z,10.77
2023-04-13T21:43:17.036Z,10.20
2023-04-13T21:45:44.006Z,10.50
2023-04-13T21:48:11.639Z,10.27
2023-04-13T21:50:39.004Z,10.60
2023-04-13T21:53:06.736Z,10.68
2023-04-13T21:55:33.661Z,11.38
2023-04-13T21:58:01.216Z,9.88
2023-04-13T22:00:28.279Z,10.15
2023-04-13T22:02:55.843Z,10.82
2023-04-13T22:05:22.986Z,9.93
2023-04-13T22:07:50.373Z,11.02
2023-04-13T22:10:17.678Z,10.55
2023-04-13T22:12:44.817Z,9.80
2023-04-13T22:15:12.027Z,9.80
2023-04-13T22:17:39.336Z,10.00
2023-04-13T22:20:07.033Z,10.48
2023-04-13T22:22:34.477Z,9.88
2023-04-13T22:25:01.680Z,10.45
2023-04-13T22:27:28.861Z,9.80
2023-04-13T22:29:55.857Z,9.65
2023-04-13T22:32:23.309Z,10.63
2023-04-13T22:34:50.792Z,10.38
2023-04-13T22:37:17.984Z,10.18
2023-04-13T22:39:45.127Z,10.32
2023-04-13T22:42:12.280Z,10.23
2023-04-13T22:44:39.480Z,10.48
2023-04-13T22:47:07.125Z,11.05
2023-04-13T22:49:34.029Z,9.75
2023-04-13T22:52:01.595Z,10.73
2023-04-13T22:54:28.434Z,10.25
2023-04-13T22:56:56.292Z,10.52
2023-04-13T22:59:23.332Z,9.63
2023-04-13T23:01:50.908Z,9.25
2023-04-13T23:04:18.023Z,10.77
2023-04-13T23:06:46.655Z,10.27
2023-04-13T23:09:13.482Z,9.82
2023-04-13T23:11:41.030Z,10.30
2023-04-13T23:14:08.032Z,10.25
2023-04-13T23:16:35.456Z,10.27
2023-04-13T23:19:02.610Z,9.68
2023-04-13T23:21:31.192Z,10.50
2023-04-13T23:23:58.278Z,10.05
2023-04-13T23:26:26.021Z,10.30
2023-04-13T23:28:53.021Z,9.88
2023-04-13T23:31:21.008Z,9.80
2023-04-13T23:33:47.928Z,10.30
2023-04-13T23:36:16.161Z,10.05
2023-04-13T23:38:43.304Z,10.02
2023-04-13T23:41:11.161Z,10.20
2023-04-13T23:43:38.054Z,10.07
2023-04-13T23:46:05.322Z,10.13
2023-04-13T23:48:32.343Z,10.50
2023-04-13T23:50:59.752Z,10.23
2023-04-13T23:53:26.753Z,10.40
2023-04-13T23:55:54.103Z,10.35
2023-04-13T23:58:21.163Z,10.20
